createdAt,value
2018-11-03T00:00:23.094Z,3.20
2018-11-03T00:05:27.077Z,3.40
2018-11-03T00:10:35.647Z,3.23
2018-11-03T00:15:46.256Z,3.00
2018-11-03T00:20:50.941Z,2.47
2018-11-03T00:25:54.806Z,2.20
2018-11-03T00:31:05.969Z,3.27
2018-11-03T00:36:09.638Z,3.17
2018-11-03T00:41:13.554Z,2.57
2018-11-03T00:46:18.745Z,2.40
2018-11-03T00:51:22.688Z,2.60
2018-11-03T00:56:26.226Z,3.20
2018-11-03T01:01:30.017Z,2.87
2018-11-03T01:06:33.530Z,2.53
2018-11-03T01:11:49.996Z,2.70
2018-11-03T01:16:55.638Z,2.87
2018-11-03T01:22:01.111Z,2.23
2018-11-03T01:27:05.298Z,2.90
2018-11-03T01:32:10.819Z,2.60
2018-11-03T01:37:14.754Z,2.60
2018-11-03T01:42:18.647Z,2.40
2018-11-03T01:47:22.340Z,2.90
2018-11-03T01:52:26.904Z,2.90
2018-11-03T01:57:31.133Z,2.40
2018-11-03T02:02:35.273Z,3.57
2018-11-03T02:07:39.227Z,2.87
2018-11-03T02:12:42.986Z,2.93
2018-11-03T02:17:48.214Z,2.57
2018-11-03T02:22:52.079Z,2.63
2018-11-03T02:27:55.802Z,2.43
2018-11-03T02:32:59.867Z,2.00
2018-11-03T02:38:04.180Z,2.87
2018-11-03T02:43:08.908Z,2.40
2018-11-03T02:48:12.662Z,5.20
2018-11-03T02:53:16.544Z,2.33
2018-11-03T02:58:21.469Z,2.40
2018-11-03T03:03:25.005Z,2.77
2018-11-03T03:08:28.442Z,2.20
2018-11-03T03:13:33.235Z,2.57
2018-11-03T03:18:37.524Z,2.47
2018-11-03T03:23:41.485Z,3.07
2018-11-03T03:28:45.239Z,2.40
2018-11-03T03:33:48.983Z,2.40
2018-11-03T03:38:52.688Z,2.53
2018-11-03T03:43:56.863Z,2.60
2018-11-03T03:49:01.098Z,2.50
2018-11-03T03:54:05.118Z,3.03
2018-11-03T03:59:09.397Z,2.03
2018-11-03T04:04:13.362Z,2.50
2018-11-03T04:09:18.184Z,2.53
2018-11-03T04:14:21.983Z,2.60
2018-11-03T04:19:25.971Z,2.00
2018-11-03T04:24:29.533Z,3.07
2018-11-03T04:29:33.617Z,3.27
2018-11-03T04:34:38.139Z,2.30
2018-11-03T04:39:41.606Z,2.53
2018-11-03T04:44:46.271Z,3.43
2018-11-03T04:49:50.506Z,2.90
2018-11-03T04:54:54.584Z,3.43
2018-11-03T04:59:58.350Z,3.40
2018-11-03T05:05:02.539Z,3.20
2018-11-03T05:10:07.416Z,2.87
2018-11-03T05:15:11.192Z,2.70
2018-11-03T05:20:15.128Z,3.30
2018-11-03T05:25:19.415Z,3.87
2018-11-03T05:30:23.169Z,3.90
2018-11-03T05:35:27.064Z,3.80
2018-11-03T05:40:30.937Z,4.33
2018-11-03T05:45:35.011Z,3.70
2018-11-03T05:50:47.258Z,4.00
2018-11-03T05:55:51.507Z,3.93
2018-11-03T06:00:56.490Z,3.60
2018-11-03T06:06:00.011Z,4.23
2018-11-03T06:11:04.067Z,4.00
2018-11-03T06:16:07.842Z,3.80
2018-11-03T06:21:11.850Z,4.80
2018-11-03T06:26:15.734Z,6.37
2018-11-03T06:31:20.007Z,4.90
2018-11-03T06:36:23.752Z,6.30
2018-11-03T06:41:27.386Z,8.03
2018-11-03T06:46:31.552Z,6.67
2018-11-03T06:51:35.514Z,7.10
2018-11-03T06:56:38.936Z,5.30
2018-11-03T07:01:42.878Z,20.33
2018-11-03T07:06:51.150Z,7.83
2018-11-03T07:11:55.928Z,7.63
2018-11-03T07:17:00.661Z,8.57
2018-11-03T07:22:04.578Z,7.13
2018-11-03T07:27:08.210Z,6.03
2018-11-03T07:32:11.873Z,7.80
2018-11-03T07:37:15.949Z,12.93
2018-11-03T07:42:24.235Z,9.50
2018-11-03T07:47:28.146Z,11.50
2018-11-03T07:52:32.096Z,10.83
2018-11-03T07:57:36.278Z,10.53
2018-11-03T08:02:40.739Z,13.33
2018-11-03T08:07:44.097Z,10.93
2018-11-03T08:12:48.205Z,13.60
2018-11-03T08:17:52.070Z,14.57
2018-11-03T08:22:55.428Z,22.63
2018-11-03T08:27:59.111Z,14.83
2018-11-03T08:33:02.489Z,11.40
2018-11-03T08:38:06.538Z,13.03
2018-11-03T08:43:09.966Z,14.50
2018-11-03T08:48:14.488Z,13.97
2018-11-03T08:53:18.371Z,14.97
2018-11-03T08:58:22.303Z,13.27
2018-11-03T09:03:25.969Z,11.40
2018-11-03T09:08:29.325Z,10.33
2018-11-03T09:13:32.682Z,15.80
2018-11-03T09:18:36.602Z,18.13
2018-11-03T09:23:40.494Z,18.37
2018-11-03T09:28:45.154Z,16.10
2018-11-03T09:33:48.537Z,18.60
2018-11-03T09:38:52.318Z,14.10
2018-11-03T09:43:56.197Z,18.33
2018-11-03T09:49:01.734Z,18.70
2018-11-03T09:54:07.728Z,29.67
2018-11-03T09:59:11.622Z,17.73
2018-11-03T10:04:15.711Z,20.00
2018-11-03T10:09:20.641Z,25.93
2018-11-03T10:14:33.296Z,14.43
2018-11-03T10:19:37.604Z,23.07
2018-11-03T10:24:43.103Z,35.00
2018-11-03T10:29:47.236Z,23.77
2018-11-03T10:34:50.949Z,20.40
2018-11-03T10:39:54.570Z,18.20
2018-11-03T10:44:58.150Z,21.60
2018-11-03T10:50:01.571Z,25.50
2018-11-03T10:55:07.578Z,24.00
2018-11-03T11:00:19.738Z,20.90
2018-11-03T11:05:28.838Z,22.63
2018-11-03T11:10:39.090Z,20.83
2018-11-03T11:15:42.542Z,20.43
2018-11-03T11:20:46.034Z,22.17
2018-11-03T11:25:49.774Z,21.50
2018-11-03T11:30:54.944Z,21.20
2018-11-03T11:36:07.363Z,19.00
2018-11-03T11:41:11.545Z,19.30
2018-11-03T11:46:15.902Z,25.30
2018-11-03T11:51:20.410Z,24.77
2018-11-03T11:56:23.822Z,20.93
2018-11-03T12:01:27.638Z,21.00
2018-11-03T12:06:31.360Z,22.07
2018-11-03T12:11:35.311Z,24.57
2018-11-03T12:16:38.770Z,18.13
2018-11-03T12:21:42.204Z,23.63
2018-11-03T12:26:45.886Z,22.53
2018-11-03T12:31:49.702Z,16.00
2018-11-03T12:36:53.410Z,17.33
2018-11-03T12:42:04.042Z,17.40
2018-11-03T12:47:07.874Z,10.90
2018-11-03T12:52:11.883Z,15.63
2018-11-03T12:57:15.286Z,16.20
2018-11-03T13:02:18.723Z,15.20
2018-11-03T13:07:22.442Z,14.30
2018-11-03T13:12:25.814Z,11.70
2018-11-03T13:17:29.438Z,11.13
2018-11-03T13:22:32.884Z,12.53
2018-11-03T13:27:36.289Z,9.93
2018-11-03T13:32:45.875Z,8.67
2018-11-03T13:37:49.227Z,8.00
2018-11-03T13:42:53.328Z,9.90
2018-11-03T13:48:00.644Z,7.87
2018-11-03T13:53:04.475Z,5.90
2018-11-03T13:58:07.806Z,5.07
2018-11-03T14:03:11.982Z,7.80
2018-11-03T14:08:15.401Z,5.20
2018-11-03T14:13:24.164Z,6.40
2018-11-03T14:18:28.063Z,5.70
2018-11-03T14:23:38.024Z,5.70
2018-11-03T14:28:42.059Z,5.47
2018-11-03T14:33:45.968Z,5.10
2018-11-03T14:38:50.522Z,4.10
2018-11-03T14:43:54.164Z,3.60
2018-11-03T14:48:58.640Z,5.40
2018-11-03T14:54:02.397Z,4.70
2018-11-03T14:59:06.327Z,3.57
2018-11-03T15:04:10.927Z,4.50
2018-11-03T15:09:14.842Z,5.43
2018-11-03T15:14:22.093Z,5.17
2018-11-03T15:19:26.043Z,5.50
2018-11-03T15:24:29.442Z,4.60
2018-11-03T15:29:33.240Z,4.40
2018-11-03T15:34:37.093Z,4.00
2018-11-03T15:39:40.459Z,4.80
2018-11-03T15:44:44.466Z,3.20
2018-11-03T15:49:48.838Z,3.97
2018-11-03T15:54:55.893Z,3.47
2018-11-03T15:59:59.920Z,2.90
2018-11-03T16:05:04.564Z,3.90
2018-11-03T16:10:09.578Z,3.17
2018-11-03T16:15:13.642Z,3.07
2018-11-03T16:20:17.531Z,3.40
2018-11-03T16:25:21.546Z,4.03
2018-11-03T16:30:25.003Z,4.37
2018-11-03T16:35:28.498Z,4.70
2018-11-03T16:40:32.442Z,3.80
2018-11-03T16:45:42.254Z,5.40
2018-11-03T16:50:46.631Z,5.10
2018-11-03T16:55:52.789Z,5.37
2018-11-03T17:00:56.218Z,4.90
2018-11-03T17:06:00.191Z,5.50
2018-11-03T17:11:03.623Z,4.97
2018-11-03T17:16:07.279Z,5.80
2018-11-03T17:21:11.184Z,7.17
2018-11-03T17:26:14.647Z,6.77
2018-11-03T17:31:18.220Z,7.00
2018-11-03T17:36:25.585Z,7.90
2018-11-03T17:41:29.788Z,9.60
2018-11-03T17:46:34.433Z,9.40
2018-11-03T17:51:38.847Z,8.80
2018-11-03T17:56:42.459Z,10.40
2018-11-03T18:02:17.383Z,10.13
2018-11-03T18:07:21.422Z,10.37
2018-11-03T18:12:26.092Z,9.50
2018-11-03T18:17:29.946Z,9.67
2018-11-03T18:22:37.327Z,8.87
2018-11-03T18:27:47.133Z,8.57
2018-11-03T18:32:51.103Z,9.80
2018-11-03T18:38:01.439Z,8.53
2018-11-03T18:43:11.263Z,9.63
2018-11-03T18:48:21.729Z,8.70
2018-11-03T18:53:30.658Z,7.93
2018-11-03T18:58:35.392Z,9.20
2018-11-03T19:03:41.617Z,8.60
2018-11-03T19:08:47.225Z,7.83
2018-11-03T19:14:12.723Z,9.87
2018-11-03T19:19:22.585Z,8.67
2018-11-03T19:24:28.507Z,8.93
2018-11-03T19:29:39.070Z,7.60
2018-11-03T19:34:44.922Z,7.13
2018-11-03T19:39:54.346Z,8.90
2018-11-03T19:44:59.086Z,9.47
2018-11-03T19:50:14.438Z,9.93
2018-11-03T19:55:19.274Z,11.57
2018-11-03T20:00:23.292Z,11.63
2018-11-03T20:05:26.956Z,11.07
2018-11-03T20:10:31.164Z,12.70
2018-11-03T20:15:34.841Z,15.93
2018-11-03T20:20:38.522Z,32.37
2018-11-03T20:25:42.890Z,41.13
2018-11-03T20:30:52.183Z,49.17
2018-11-03T20:35:56.973Z,74.47
2018-11-03T20:41:01.594Z,87.33
2018-11-03T20:46:10.164Z,93.77
2018-11-03T20:51:15.763Z,63.50
2018-11-03T20:56:21.011Z,48.10
2018-11-03T21:01:24.956Z,36.33
2018-11-03T21:06:28.389Z,24.77
2018-11-03T21:11:32.188Z,19.37
2018-11-03T21:16:35.787Z,17.67
2018-11-03T21:21:39.121Z,15.00
2018-11-03T21:26:42.981Z,15.37
2018-11-03T21:31:53.236Z,14.43
2018-11-03T21:36:57.426Z,14.60
2018-11-03T21:42:05.809Z,13.20
2018-11-03T21:47:10.086Z,13.47
2018-11-03T21:52:13.489Z,12.33
2018-11-03T21:57:17.101Z,12.40
2018-11-03T22:02:25.822Z,12.63
2018-11-03T22:07:36.137Z,13.37
2018-11-03T22:12:41.276Z,11.67
2018-11-03T22:17:44.708Z,10.10
2018-11-03T22:22:49.048Z,13.33
2018-11-03T22:27:52.717Z,11.67
2018-11-03T22:33:01.079Z,10.60
2018-11-03T22:38:05.418Z,15.53
2018-11-03T22:43:09.107Z,13.27
2018-11-03T22:48:12.718Z,12.47
2018-11-03T22:53:16.377Z,13.67
2018-11-03T22:58:19.776Z,11.63
2018-11-03T23:03:25.866Z,10.10
2018-11-03T23:08:30.710Z,12.57
2018-11-03T23:13:35.269Z,10.67
2018-11-03T23:18:39.081Z,9.67
2018-11-03T23:23:47.125Z,10.80
2018-11-03T23:28:51.432Z,7.73
2018-11-03T23:33:57.697Z,8.90
2018-11-03T23:39:02.228Z,10.40
2018-11-03T23:44:05.874Z,8.30
2018-11-03T23:49:09.847Z,11.10
2018-11-03T23:54:14.391Z,10.73
2018-11-03T23:59:18.095Z,10.93
